Windham, NY

5:14 PM EST on December 09, 2016 (GMT -0500)
Townhouse at Base of Windham Mountain Resort | | Change Station

Elev 1654 ft 42.30 °N, 74.26 °W | Updated 11 seconds ago

Mostly Cloudy
Mostly Cloudy
20.7 °F
Feels Like 15 °F
N
4.0
Wind Variable Wind from South

Today
High -- | Low -- °F
--% Chance of Precip.
Yesterday
High -- | Low -- °F
Precip. -- in
Pressure 30.20 in
Visibility 10.0 miles
Clouds Mostly Cloudy 5000 ft
Windchill 15 °F
Dew Point 12 °F
Humidity 69%
Rainfall 0.00 in
Snow Depth Not available.
7:14 AM 4:24 PM
Waxing Gibbous, 77% visible
METAR KALB 092151Z 30014G25KT 10SM BKN050 M03/M13 A3019 RMK AO2 SLP225 T10281133
Pressure 30.20 in
Visibility 10.0 miles
Clouds Mostly Cloudy 5000 ft
Windchill 15 °F
Dew Point 12 °F
Humidity 69%
Rainfall 0.00 in
Snow Depth Not available.
7:14 AM 4:24 PM
Waxing Gibbous, 77% visible
METAR KALB 092151Z 30014G25KT 10SM BKN050 M03/M13 A3019 RMK AO2 SLP225 T10281133

10-Day Weather Forecast

Almanac

Astronomy

Dec. 09, 2016 Rise Set
Actual Time
Civil Twilight
Nautical Twilight
Astronomical Twilight
Moon
Length of Visible Light
Length of Day
Tomorrow will be .
, % of the Moon is Illuminated

Today's Extremes

State Highs State Lows

Community

WunderPhotos

Upload Photos

1,956,535 photos uploaded!

WunderBlog® & News

Nearby

Air Quality

  Air Quality AQ Index Pollutant
Not available.

Snow Depth

Station Depth Elevation

Earthquake Activity

City Distance Mag. Time & Date
Minimum magnitude displayed is 2.5.

Coastal Water Temperatures

Place Temperature

Stations

Nearby Weather Stations

Station Location Temp. Windchill Dew Point Humidity Wind Precip. Elev Updated Type
                   

Watches & Warnings

There are currently no watches in effect.